GVAC/SID METAR and TAF weather

Enter ICAO airport designator
Station Type Date Time Source
GVAC METAR 2020/02/21 15:00 UTC NOAA

GVAC 211500Z 04018KT 9999 SCT014 BKN200 25/17 Q1014 NOSIG


Station Type Date Time Source
GVAC Decoded METAR 2020/02/21 15:00 UTC NOAA

Sal, Cape Verde (GVAC) 16-44N 022-57W 55M
Feb 21, 2020 - 10:00 AM EST / 2020.02.21 1500 UTC
Wind: from the NE (040 degrees) at 21 MPH (18 KT):0
Visibility: greater than 7 mile(s):0
Sky conditions: mostly cloudy
Temperature: 77 F (25 C)
Dew Point: 62 F (17 C)
Relative Humidity: 61%
Pressure (altimeter): 29.94 in. Hg (1014 hPa)
ob: GVAC 211500Z 04018KT 9999 SCT014 BKN200 25/17 Q1014 NOSIG
cycle: 15

Station Type Date Time Source
GVAC TAF 2020/02/21 12:59 UTC NOAA

TAF GVAC 211100Z 2112/2218 03018KT 9999 SCT014 PROB40
TEMPO 2112/2118 04018G28KT
TEMPO 2120/2208 8000 BKN014

Example: see airport list